Time;durP1;ratioP1;P1;durP2;ratioP2;P2;SDS_P1;SDS_P2;PMS_P1;PMS_P2;Temp;Humidity;BMP_temperature;BMP_pressure;BME280_temperature;BME280_humidity;BME280_pressure;Samples;Min_cycle;Max_cycle;Signal;HPM_P1;HPM_P2
2022/07/10 00:01:09;;;;;;;2.22;0.90;;;21.60;55.50;;;;;;5046031;28;20029;-78
2022/07/10 00:03:34;;;;;;;1.17;0.70;;;21.50;56.40;;;;;;5051637;28;20060;-78
2022/07/10 00:06:00;;;;;;;1.40;0.90;;;21.40;56.40;;;;;;5058041;28;20029;-79
2022/07/10 00:08:26;;;;;;;1.67;0.95;;;21.40;56.40;;;;;;5052567;28;20450;-78
2022/07/10 00:10:52;;;;;;;1.60;0.82;;;21.40;56.70;;;;;;5037981;28;20034;-79
2022/07/10 00:13:18;;;;;;;3.75;1.17;;;21.30;56.50;;;;;;5037771;28;20112;-78
2022/07/10 00:15:43;;;;;;;3.30;1.20;;;21.30;56.20;;;;;;5037826;28;20461;-78
2022/07/10 00:18:09;;;;;;;2.85;0.90;;;21.20;56.70;;;;;;5050695;28;20048;-79
2022/07/10 00:20:36;;;;;;;2.08;1.10;;;21.10;57.30;;;;;;5057799;28;20021;-78
2022/07/10 00:23:01;;;;;;;3.20;1.10;;;21.20;57.10;;;;;;5049614;28;20045;-78
2022/07/10 00:25:27;;;;;;;3.20;1.00;;;21.10;57.50;;;;;;5037611;28;20026;-79
2022/07/10 00:27:53;;;;;;;2.45;0.93;;;21.00;57.90;;;;;;5037479;28;20484;-78
2022/07/10 00:30:19;;;;;;;1.88;1.02;;;21.00;57.60;;;;;;5037469;28;20026;-78
2022/07/10 00:32:44;;;;;;;1.77;1.08;;;21.10;57.50;;;;;;5037537;28;20021;-78
2022/07/10 00:35:10;;;;;;;1.55;0.90;;;21.00;57.80;;;;;;5037437;28;20083;-78
2022/07/10 00:37:36;;;;;;;2.88;1.10;;;21.00;57.80;;;;;;5037016;28;20036;-78
2022/07/10 00:40:05;;;;;;;1.45;0.90;;;21.00;57.70;;;;;;5037464;28;20026;-78
2022/07/10 00:42:31;;;;;;;1.95;1.20;;;21.00;57.80;;;;;;5037171;28;20093;-78
2022/07/10 00:44:57;;;;;;;3.38;1.15;;;20.90;57.80;;;;;;5037245;28;20061;-78
2022/07/10 00:47:22;;;;;;;2.05;1.10;;;20.80;58.20;;;;;;5035955;28;20034;-78
2022/07/10 00:49:48;;;;;;;2.50;1.13;;;20.80;58.70;;;;;;5038318;28;20033;-78
2022/07/10 00:52:15;;;;;;;1.52;0.90;;;20.70;58.70;;;;;;5057272;28;20021;-78
2022/07/10 00:54:44;;;;;;;1.92;1.17;;;20.60;58.90;;;;;;5056158;28;20033;-78
2022/07/10 00:57:11;;;;;;;2.67;1.27;;;20.60;59.30;;;;;;5056711;28;20083;-78
2022/07/10 00:59:37;;;;;;;2.83;1.27;;;20.50;59.30;;;;;;5036662;28;20035;-78
2022/07/10 01:02:04;;;;;;;1.80;1.30;;;20.50;59.30;;;;;;5056919;28;20056;-78
2022/07/10 01:04:30;;;;;;;1.88;0.98;;;20.50;59.20;;;;;;5056876;28;20064;-78
2022/07/10 01:06:56;;;;;;;2.05;1.50;;;20.50;59.50;;;;;;5049162;28;20559;-78
2022/07/10 01:09:22;;;;;;;2.10;1.35;;;20.50;59.30;;;;;;5035583;28;20045;-78
2022/07/10 01:11:49;;;;;;;3.08;1.30;;;20.40;59.60;;;;;;5036691;28;20025;-78
2022/07/10 01:14:18;;;;;;;2.35;1.30;;;20.40;59.60;;;;;;5036606;28;20029;-78
2022/07/10 01:16:43;;;;;;;2.42;1.45;;;20.30;59.60;;;;;;5037549;28;20056;-78
2022/07/10 01:19:09;;;;;;;3.97;1.50;;;20.30;59.90;;;;;;5056753;28;20380;-78
2022/07/10 01:21:36;;;;;;;2.65;1.52;;;20.40;59.50;;;;;;5043028;28;20061;-78
2022/07/10 01:24:07;;;;;;;2.20;1.42;;;20.40;59.50;;;;;;5036645;28;20024;-78
2022/07/10 01:26:34;;;;;;;2.25;1.45;;;20.40;59.50;;;;;;5056567;28;20029;-78
2022/07/10 01:29:03;;;;;;;3.20;1.83;;;20.40;59.70;;;;;;5047222;28;20553;-78
2022/07/10 01:31:31;;;;;;;2.72;1.63;;;20.40;59.40;;;;;;5036128;28;20033;-79
2022/07/10 01:34:00;;;;;;;3.97;1.33;;;20.30;59.40;;;;;;5036350;28;20041;-78
2022/07/10 01:36:31;;;;;;;2.42;1.35;;;20.30;59.70;;;;;;5036216;28;20033;-78
2022/07/10 01:38:58;;;;;;;1.83;1.15;;;20.30;59.50;;;;;;5036363;28;20503;-78
2022/07/10 01:41:25;;;;;;;2.78;1.50;;;20.20;59.80;;;;;;5036176;28;20030;-78
2022/07/10 01:43:51;;;;;;;2.33;1.23;;;20.20;59.90;;;;;;5036091;28;20038;-78
2022/07/10 01:46:18;;;;;;;2.47;1.60;;;20.10;60.00;;;;;;5035748;28;20025;-78
2022/07/10 01:48:44;;;;;;;2.20;1.23;;;20.10;60.10;;;;;;5035696;28;20021;-78
2022/07/10 01:51:10;;;;;;;2.65;1.55;;;19.90;60.60;;;;;;5035976;28;20025;-78
2022/07/10 01:53:37;;;;;;;1.80;1.35;;;19.80;61.30;;;;;;5036069;28;20040;-78
2022/07/10 01:56:08;;;;;;;2.30;1.50;;;19.80;61.10;;;;;;5039160;28;20033;-78
2022/07/10 01:58:35;;;;;;;2.65;1.40;;;19.70;61.20;;;;;;5055620;28;20052;-79
2022/07/10 02:01:01;;;;;;;4.28;1.65;;;19.70;61.40;;;;;;5055863;28;20031;-78
2022/07/10 02:06:11;;;;;;;4.18;2.10;;;19.70;61.10;;;;;;5056042;28;20040;-78
2022/07/10 02:08:37;;;;;;;1.98;1.33;;;19.70;61.00;;;;;;5047385;28;20109;-78
2022/07/10 02:11:03;;;;;;;1.98;1.50;;;19.70;60.90;;;;;;5034325;28;20041;-78
2022/07/10 02:13:28;;;;;;;2.47;1.50;;;19.70;60.80;;;;;;5035227;28;20033;-78
2022/07/10 02:15:55;;;;;;;3.08;1.67;;;19.60;61.00;;;;;;5055213;28;20056;-78
2022/07/10 02:18:21;;;;;;;2.88;1.67;;;19.60;61.10;;;;;;5055482;28;20518;-78
2022/07/10 02:20:47;;;;;;;2.88;1.63;;;19.60;61.20;;;;;;5043004;28;20124;-78
2022/07/10 02:23:13;;;;;;;3.78;1.60;;;19.50;61.20;;;;;;5035706;28;20163;-78
2022/07/10 02:25:39;;;;;;;2.35;1.67;;;19.50;61.20;;;;;;5035173;28;20025;-78
2022/07/10 02:28:07;;;;;;;2.65;1.52;;;19.50;61.40;;;;;;5035377;28;20131;-78
2022/07/10 02:30:33;;;;;;;2.17;1.40;;;19.40;61.40;;;;;;5035340;28;20036;-78
2022/07/10 02:32:59;;;;;;;2.88;1.73;;;19.40;61.30;;;;;;5034459;28;20029;-78
2022/07/10 02:35:24;;;;;;;2.13;1.40;;;19.40;61.20;;;;;;5035318;28;20030;-78
2022/07/10 02:37:50;;;;;;;2.83;1.60;;;19.30;61.20;;;;;;5053673;28;20100;-78
2022/07/10 02:40:16;;;;;;;1.33;1.02;;;19.30;61.50;;;;;;5055317;28;20033;-78
2022/07/10 02:42:41;;;;;;;2.80;1.50;;;19.30;61.50;;;;;;5054798;28;20478;-78
2022/07/10 02:45:25;;;;;;;3.05;1.20;;;19.20;61.80;;;;;;5037152;28;20026;-78
2022/07/10 02:47:50;;;;;;;2.72;1.73;;;19.20;61.70;;;;;;5035170;28;20093;-78
2022/07/10 02:50:16;;;;;;;2.22;1.45;;;19.20;61.90;;;;;;5035104;28;20459;-78
2022/07/10 02:52:41;;;;;;;3.13;1.50;;;19.20;62.00;;;;;;5035320;28;20404;-78
2022/07/10 02:55:08;;;;;;;2.28;1.48;;;19.20;62.00;;;;;;5035134;28;20472;-78
2022/07/10 02:57:33;;;;;;;2.25;1.60;;;19.10;62.20;;;;;;5040584;28;20037;-78
2022/07/10 02:59:59;;;;;;;2.67;1.77;;;19.10;62.40;;;;;;5058953;28;20549;-78
2022/07/10 03:02:27;;;;;;;2.08;1.55;;;19.00;62.40;;;;;;5058984;28;20028;-78
2022/07/10 03:04:52;;;;;;;2.33;1.58;;;19.10;62.20;;;;;;5057974;28;20041;-78
2022/07/10 03:07:18;;;;;;;2.40;1.75;;;19.00;62.20;;;;;;5059215;28;20505;-78
2022/07/10 03:09:44;;;;;;;2.40;1.80;;;19.00;62.40;;;;;;5056534;28;20116;-78
2022/07/10 03:12:09;;;;;;;2.67;1.98;;;18.90;62.70;;;;;;5039202;28;20028;-78
2022/07/10 03:14:35;;;;;;;2.97;2.00;;;18.90;62.70;;;;;;5045994;28;20029;-78
2022/07/10 03:17:01;;;;;;;5.38;1.95;;;18.90;62.70;;;;;;5058588;28;20052;-78
2022/07/10 03:19:26;;;;;;;3.78;1.83;;;18.90;62.20;;;;;;5058663;28;20021;-78
2022/07/10 03:21:52;;;;;;;2.42;1.35;;;18.80;62.60;;;;;;5048666;28;20029;-78
2022/07/10 03:24:18;;;;;;;2.80;1.80;;;18.80;63.00;;;;;;5038989;28;20033;-78
2022/07/10 03:26:44;;;;;;;3.03;1.85;;;18.70;63.00;;;;;;5038566;28;20033;-78
2022/07/10 03:29:10;;;;;;;2.38;1.98;;;18.60;63.10;;;;;;5038650;28;20022;-78
2022/07/10 03:31:36;;;;;;;2.90;2.10;;;18.60;63.00;;;;;;5038596;28;20040;-78
2022/07/10 03:34:01;;;;;;;2.47;1.63;;;18.60;63.10;;;;;;5038652;28;20026;-78
2022/07/10 03:36:27;;;;;;;2.92;1.55;;;18.60;63.30;;;;;;5038187;28;20045;-78
2022/07/10 03:38:53;;;;;;;3.25;1.83;;;18.50;63.40;;;;;;5038524;28;20108;-78
2022/07/10 03:41:19;;;;;;;2.38;1.63;;;18.50;63.40;;;;;;5038268;28;20089;-78
2022/07/10 03:43:44;;;;;;;3.30;1.70;;;18.50;63.50;;;;;;5038440;28;20468;-78
2022/07/10 03:46:10;;;;;;;3.60;2.47;;;18.50;63.00;;;;;;5037212;28;20396;-78
2022/07/10 03:48:36;;;;;;;2.83;2.05;;;18.50;63.20;;;;;;5038427;28;20029;-78
2022/07/10 03:51:02;;;;;;;3.80;2.20;;;18.50;63.00;;;;;;5038170;28;20032;-78
2022/07/10 03:53:45;;;;;;;2.75;1.92;;;18.50;63.20;;;;;;5036708;28;20033;-78
2022/07/10 03:57:53;;;;;;;2.65;1.83;;;18.40;63.30;;;;;;5038217;28;20124;-78
2022/07/10 03:59:06;;;;;;;2.72;1.98;;;18.40;63.20;;;;;;5037903;28;20032;-78
2022/07/10 04:01:32;;;;;;;2.50;1.95;;;18.30;63.40;;;;;;5054029;28;20028;-78
2022/07/10 04:03:58;;;;;;;2.97;2.00;;;18.30;63.80;;;;;;5052405;28;20049;-78
2022/07/10 04:06:23;;;;;;;2.50;1.90;;;18.30;63.50;;;;;;5038141;28;20037;-78
2022/07/10 04:08:49;;;;;;;2.80;1.90;;;18.30;63.40;;;;;;5037375;28;20026;-78
2022/07/10 04:11:15;;;;;;;3.00;1.90;;;18.30;63.70;;;;;;5037808;28;20377;-78
2022/07/10 04:13:41;;;;;;;2.58;1.75;;;18.30;63.70;;;;;;5037784;28;20021;-78
2022/07/10 04:16:10;;;;;;;4.25;2.42;;;18.30;63.50;;;;;;5037632;28;20087;-78
2022/07/10 04:18:35;;;;;;;3.13;1.90;;;18.30;63.00;;;;;;5052870;28;20487;-78
2022/07/10 04:21:01;;;;;;;3.15;2.10;;;18.30;63.30;;;;;;5041964;28;20103;-78
2022/07/10 04:23:26;;;;;;;3.78;2.20;;;18.20;63.20;;;;;;5037541;28;20396;-78
2022/07/10 04:25:52;;;;;;;2.35;2.00;;;18.20;63.30;;;;;;5037819;28;20033;-78
2022/07/10 04:28:18;;;;;;;3.10;2.10;;;18.20;63.40;;;;;;5037179;28;20037;-78
2022/07/10 04:30:43;;;;;;;3.63;2.00;;;18.10;63.10;;;;;;5037480;28;20037;-78
2022/07/10 04:33:09;;;;;;;2.63;1.95;;;18.20;63.10;;;;;;5037612;28;20025;-78
2022/07/10 04:35:34;;;;;;;3.15;2.40;;;18.10;63.00;;;;;;5037251;28;20030;-78
2022/07/10 04:38:00;;;;;;;3.33;1.50;;;18.10;63.30;;;;;;5037586;28;20523;-78
2022/07/10 04:40:26;;;;;;;2.17;1.75;;;18.10;63.10;;;;;;5037429;28;20085;-78
2022/07/10 04:42:51;;;;;;;2.88;1.90;;;18.10;62.90;;;;;;5037146;28;20028;-78
2022/07/10 04:45:17;;;;;;;2.35;1.73;;;18.10;63.30;;;;;;5036061;28;20025;-78
2022/07/10 04:47:42;;;;;;;2.92;1.80;;;18.10;63.20;;;;;;5037009;28;20029;-78
2022/07/10 04:50:08;;;;;;;3.13;1.88;;;18.10;63.20;;;;;;5037315;28;20034;-77
2022/07/10 04:52:34;;;;;;;3.22;1.85;;;18.00;63.00;;;;;;5037107;28;20030;-78
2022/07/10 04:54:59;;;;;;;3.97;2.35;;;18.00;63.40;;;;;;5052985;28;20033;-78
2022/07/10 04:57:25;;;;;;;2.45;1.92;;;17.90;63.80;;;;;;5057029;28;20029;-78
2022/07/10 04:59:51;;;;;;;3.50;2.15;;;17.90;63.60;;;;;;5056806;28;20041;-78
2022/07/10 05:02:17;;;;;;;2.42;1.90;;;17.90;63.50;;;;;;5037919;28;20026;-78
2022/07/10 05:04:42;;;;;;;6.85;2.40;;;17.90;63.60;;;;;;5042459;28;20093;-78
2022/07/10 05:07:08;;;;;;;1.98;1.75;;;17.90;63.50;;;;;;5042416;28;20056;-78
2022/07/10 05:09:33;;;;;;;2.38;1.80;;;17.80;63.80;;;;;;5056563;28;20032;-78
2022/07/10 05:11:59;;;;;;;3.25;1.90;;;17.80;63.80;;;;;;5047110;28;20080;-78
2022/07/10 05:14:25;;;;;;;4.43;1.92;;;17.80;63.60;;;;;;5047057;28;20539;-78
2022/07/10 05:16:51;;;;;;;3.33;1.88;;;17.80;63.50;;;;;;5038936;28;20401;-78
2022/07/10 05:19:16;;;;;;;2.78;2.10;;;17.90;63.30;;;;;;5056277;28;20021;-78
2022/07/10 05:21:42;;;;;;;1.83;1.48;;;17.80;63.70;;;;;;5047296;28;20025;-78
2022/07/10 05:24:08;;;;;;;3.67;2.25;;;17.80;63.60;;;;;;5036298;28;20416;-78
2022/07/10 05:26:33;;;;;;;2.60;1.65;;;17.90;63.40;;;;;;5036307;28;20093;-78
2022/07/10 05:28:59;;;;;;;2.88;1.85;;;17.90;63.20;;;;;;5036284;28;20494;-78
2022/07/10 05:31:25;;;;;;;2.40;1.90;;;18.00;63.30;;;;;;5036486;28;20088;-78
2022/07/10 05:33:50;;;;;;;2.20;1.80;;;18.00;63.10;;;;;;5045575;28;20040;-78
2022/07/10 05:36:17;;;;;;;2.35;2.08;;;18.00;63.00;;;;;;5036192;28;20399;-78
2022/07/10 05:38:43;;;;;;;4.13;1.85;;;18.00;63.00;;;;;;5055899;28;20025;-78
2022/07/10 05:41:09;;;;;;;2.53;1.60;;;18.00;62.70;;;;;;5053322;28;20025;-77
2022/07/10 05:43:34;;;;;;;2.00;1.58;;;18.00;62.50;;;;;;5035863;28;20022;-78
2022/07/10 05:46:00;;;;;;;4.18;1.98;;;18.10;62.50;;;;;;5036239;28;20104;-78
2022/07/10 05:48:26;;;;;;;1.95;1.75;;;18.10;62.90;;;;;;5043577;28;20025;-78
2022/07/10 05:50:52;;;;;;;4.18;1.90;;;18.00;63.00;;;;;;5037407;28;20023;-78
2022/07/10 05:53:19;;;;;;;2.08;1.33;;;18.00;62.90;;;;;;5036005;28;20030;-78
2022/07/10 05:55:49;;;;;;;2.35;1.60;;;18.00;63.00;;;;;;5035886;28;20036;-78
2022/07/10 05:58:16;;;;;;;2.10;1.50;;;18.10;63.20;;;;;;5035539;28;20017;-78
2022/07/10 06:00:43;;;;;;;2.55;1.55;;;18.10;63.20;;;;;;5044985;28;20018;-78
2022/07/10 06:03:09;;;;;;;4.80;2.10;;;18.10;63.30;;;;;;5054009;28;20084;-78
2022/07/10 06:05:36;;;;;;;2.13;1.50;;;18.10;63.00;;;;;;5055653;28;20059;-78
2022/07/10 06:08:01;;;;;;;2.28;1.70;;;18.10;63.30;;;;;;5035855;28;20026;-78
2022/07/10 06:10:28;;;;;;;3.63;1.60;;;18.10;63.50;;;;;;5034443;28;20050;-78
2022/07/10 06:12:54;;;;;;;2.42;1.83;;;18.10;63.60;;;;;;5054217;28;20027;-78
2022/07/10 06:15:19;;;;;;;2.25;1.60;;;18.20;63.00;;;;;;5055612;28;20017;-78
2022/07/10 06:17:45;;;;;;;4.20;1.70;;;18.20;63.10;;;;;;5055383;28;20108;-78
2022/07/10 06:20:11;;;;;;;2.85;1.80;;;18.30;63.30;;;;;;5038537;28;20025;-77
2022/07/10 06:22:37;;;;;;;4.22;1.90;;;18.30;63.10;;;;;;5040030;28;20096;-78
2022/07/10 06:25:05;;;;;;;3.03;1.48;;;18.30;62.80;;;;;;5055357;28;20053;-78
2022/07/10 06:27:31;;;;;;;3.13;1.83;;;18.30;62.40;;;;;;5055217;28;20013;-78
2022/07/10 06:29:57;;;;;;;1.85;1.35;;;18.40;61.50;;;;;;5048697;28;20029;-78
2022/07/10 06:32:24;;;;;;;1.98;1.10;;;18.40;60.60;;;;;;5035247;28;20030;-78
2022/07/10 06:34:51;;;;;;;2.33;1.23;;;18.40;60.00;;;;;;5035434;28;20034;-77
2022/07/10 06:37:18;;;;;;;1.60;0.85;;;18.50;59.90;;;;;;5034896;28;20485;-78
2022/07/10 06:39:45;;;;;;;1.80;1.15;;;18.50;59.80;;;;;;5035082;28;20053;-78
2022/07/10 06:42:11;;;;;;;1.70;1.20;;;18.60;59.40;;;;;;5035468;28;20021;-78
2022/07/10 06:44:37;;;;;;;2.03;1.10;;;18.50;59.20;;;;;;5035750;28;20033;-78
2022/07/10 06:49:49;;;;;;;1.20;0.90;;;18.70;59.00;;;;;;5053741;28;20043;-78
2022/07/10 06:52:15;;;;;;;1.50;1.20;;;18.80;58.60;;;;;;5055101;28;20021;-78
2022/07/10 06:54:42;;;;;;;1.95;1.15;;;18.80;58.30;;;;;;5036148;28;20459;-77
2022/07/10 06:57:08;;;;;;;1.45;1.10;;;18.80;58.30;;;;;;5034929;28;20021;-77
2022/07/10 06:59:33;;;;;;;3.60;1.20;;;18.80;58.00;;;;;;5035192;28;20470;-78
2022/07/10 07:01:59;;;;;;;1.98;1.30;;;18.90;57.80;;;;;;5053496;28;20025;-78
2022/07/10 07:04:25;;;;;;;1.70;1.10;;;19.00;58.20;;;;;;5054947;28;20051;-78
2022/07/10 07:06:50;;;;;;;1.80;1.10;;;19.10;57.80;;;;;;5054941;28;20041;-78
2022/07/10 07:09:16;;;;;;;1.70;1.08;;;19.10;57.30;;;;;;5040588;28;20021;-78
2022/07/10 07:11:42;;;;;;;3.20;0.95;;;19.20;56.60;;;;;;5044992;28;20515;-77
2022/07/10 07:14:07;;;;;;;3.08;0.95;;;19.20;55.90;;;;;;5045537;28;20100;-77
2022/07/10 07:16:42;;;;;;;1.40;0.90;;;19.30;55.10;;;;;;5035009;28;20042;-78
2022/07/10 07:19:11;;;;;;;2.30;1.13;;;19.40;55.30;;;;;;5034849;28;20024;-78
2022/07/10 07:24:21;;;;;;;2.08;1.20;;;19.60;55.00;;;;;;5047053;28;20108;-78
2022/07/10 07:26:47;;;;;;;2.80;0.90;;;19.80;54.40;;;;;;5049144;28;20067;-78
2022/07/10 07:29:14;;;;;;;2.38;0.90;;;19.90;54.10;;;;;;5034798;28;20115;-78
2022/07/10 07:31:40;;;;;;;2.92;0.95;;;20.20;52.10;;;;;;5034459;28;20033;-78
2022/07/10 07:34:06;;;;;;;1.25;0.77;;;20.60;51.60;;;;;;5034453;28;20021;-78
2022/07/10 07:36:32;;;;;;;0.98;0.40;;;21.10;48.60;;;;;;5036823;28;20087;-78
2022/07/10 07:38:57;;;;;;;1.95;0.88;;;22.40;44.50;;;;;;5034709;28;20029;-79
2022/07/10 07:41:23;;;;;;;1.27;0.60;;;23.40;42.90;;;;;;5034549;28;20029;-79
2022/07/10 07:43:49;;;;;;;2.60;0.60;;;24.80;38.20;;;;;;5036132;28;20026;-79
2022/07/10 07:46:15;;;;;;;2.63;0.80;;;27.60;34.60;;;;;;5038562;28;20033;-80
2022/07/10 07:48:41;;;;;;;1.95;0.55;;;30.50;29.70;;;;;;5048051;28;20104;-80
2022/07/10 07:51:07;;;;;;;1.75;0.50;;;32.80;27.60;;;;;;5058083;28;20029;-80
2022/07/10 07:53:33;;;;;;;2.15;0.50;;;34.70;24.70;;;;;;5057004;28;20555;-80
2022/07/10 07:55:59;;;;;;;2.70;0.60;;;36.00;23.80;;;;;;5058246;28;20029;-81
2022/07/10 07:58:24;;;;;;;1.60;0.45;;;36.60;21.60;;;;;;5050507;28;20105;-81
2022/07/10 08:00:50;;;;;;;1.77;0.63;;;37.50;20.20;;;;;;5048560;28;20037;-80
2022/07/10 08:03:16;;;;;;;1.55;0.63;;;37.90;19.70;;;;;;5058008;28;20056;-80
2022/07/10 08:05:42;;;;;;;1.08;0.38;;;38.40;18.00;;;;;;5040396;28;20038;-80
2022/07/10 08:08:10;;;;;;;1.80;0.50;;;37.40;18.50;;;;;;5038043;28;20029;-80
2022/07/10 08:10:37;;;;;;;1.55;0.60;;;37.10;19.20;;;;;;5039192;28;20104;-80
2022/07/10 08:13:03;;;;;;;1.90;0.85;;;37.00;19.20;;;;;;5056727;28;20090;-80
2022/07/10 08:15:30;;;;;;;0.93;0.43;;;37.80;19.90;;;;;;5057835;28;20055;-79
2022/07/10 08:17:57;;;;;;;1.52;0.60;;;39.30;18.80;;;;;;5057718;28;20035;-79
2022/07/10 08:20:25;;;;;;;1.52;0.50;;;39.40;17.10;;;;;;5046520;28;20017;-79
2022/07/10 08:22:53;;;;;;;1.58;0.50;;;39.90;18.10;;;;;;5037887;28;20028;-79
2022/07/10 08:25:20;;;;;;;1.30;0.40;;;40.30;17.90;;;;;;5037771;28;20067;-80
2022/07/10 08:27:46;;;;;;;0.60;0.30;;;40.70;15.90;;;;;;5037324;28;20025;-80
2022/07/10 08:30:12;;;;;;;0.88;0.30;;;41.20;16.90;;;;;;5037728;28;20033;-80
2022/07/10 08:32:38;;;;;;;2.15;0.40;;;40.70;17.00;;;;;;5037553;28;20053;-80
2022/07/10 08:35:05;;;;;;;1.42;0.55;;;41.60;16.90;;;;;;5037351;28;20029;-80
2022/07/10 08:37:40;;;;;;;0.60;0.40;;;41.80;16.20;;;;;;5037630;28;20029;-80
2022/07/10 08:40:09;;;;;;;1.20;0.50;;;41.40;14.80;;;;;;5037259;28;20021;-80
2022/07/10 08:42:35;;;;;;;2.03;0.50;;;40.70;15.70;;;;;;5037380;28;20025;-80
2022/07/10 08:45:00;;;;;;;1.10;0.40;;;41.30;15.40;;;;;;5037017;28;20053;-80
2022/07/10 08:47:30;;;;;;;0.93;0.50;;;41.80;15.70;;;;;;5037377;28;20059;-80
2022/07/10 08:49:56;;;;;;;1.75;0.70;;;41.80;15.30;;;;;;5037551;28;20053;-80
2022/07/10 08:52:37;;;;;;;0.82;0.35;;;42.70;16.20;;;;;;5038397;28;20029;-80
2022/07/10 08:55:04;;;;;;;2.10;0.50;;;43.10;15.00;;;;;;5056073;28;20036;-80
2022/07/10 08:57:31;;;;;;;1.27;0.40;;;43.10;15.60;;;;;;5057079;28;20025;-80
2022/07/10 08:59:57;;;;;;;0.95;0.70;;;43.30;15.80;;;;;;5057214;28;20017;-80
2022/07/10 09:02:23;;;;;;;1.13;0.50;;;43.40;15.70;;;;;;5052213;28;20085;-80
2022/07/10 09:04:48;;;;;;;1.00;0.60;;;43.70;15.40;;;;;;5036832;28;20045;-80
2022/07/10 09:07:14;;;;;;;0.85;0.50;;;43.60;15.50;;;;;;5037039;28;20487;-80
2022/07/10 09:09:55;;;;;;;1.20;0.60;;;43.50;14.50;;;;;;5037040;28;20025;-80
2022/07/10 09:12:22;;;;;;;3.15;0.55;;;43.20;15.20;;;;;;5040025;28;20037;-80
2022/07/10 09:14:49;;;;;;;1.35;0.60;;;43.40;15.50;;;;;;5036956;28;20025;-80
2022/07/10 09:17:14;;;;;;;1.60;0.60;;;43.60;14.60;;;;;;5041992;28;20029;-80
2022/07/10 09:19:42;;;;;;;1.65;0.50;;;43.90;14.80;;;;;;5056780;28;20051;-80
2022/07/10 09:22:09;;;;;;;1.27;0.50;;;43.70;14.20;;;;;;5055309;28;20083;-80
2022/07/10 09:24:36;;;;;;;2.63;1.10;;;43.30;13.90;;;;;;5052122;28;20021;-80
2022/07/10 09:27:03;;;;;;;1.52;0.63;;;42.80;14.90;;;;;;5036593;28;20156;-80
2022/07/10 09:29:30;;;;;;;3.10;0.90;;;43.00;15.80;;;;;;5036677;28;20396;-80
2022/07/10 09:31:57;;;;;;;1.20;0.63;;;43.50;14.70;;;;;;5035180;28;20038;-79
2022/07/10 09:34:42;;;;;;;1.33;0.55;;;43.30;15.20;;;;;;5036284;28;20284;-80
2022/07/10 09:37:17;;;;;;;1.35;0.70;;;42.90;14.90;;;;;;5036256;28;20584;-79
2022/07/10 09:40:05;;;;;;;1.63;0.70;;;43.10;16.50;;;;;;5036337;28;20499;-80
2022/07/10 09:42:36;;;;;;;1.77;0.65;;;42.40;14.50;;;;;;5035036;28;20029;-80
2022/07/10 09:45:13;;;;;;;1.40;0.55;;;42.10;15.60;;;;;;5040335;28;20029;-79
2022/07/10 09:47:41;;;;;;;2.00;0.60;;;42.60;15.00;;;;;;5056145;28;20111;-80
2022/07/10 09:50:23;;;;;;;;;;;42.30;15.90;;;;;;5056811;28;20491;-79
2022/07/10 09:52:52;;;;;;;2.88;0.70;;;42.80;14.90;;;;;;5050965;28;19905;-79
2022/07/10 09:55:20;;;;;;;1.38;0.80;;;43.30;15.90;;;;;;5036289;28;20121;-79
2022/07/10 09:57:55;;;;;;;1.90;0.70;;;42.30;15.20;;;;;;5035579;28;20033;-80
2022/07/10 10:00:26;;;;;;;0.88;0.60;;;42.80;15.60;;;;;;5041998;28;20135;-79
2022/07/10 10:03:00;;;;;;;1.70;0.80;;;42.70;14.60;;;;;;5054395;28;20028;-79
2022/07/10 10:05:52;;;;;;;1.95;0.95;;;43.10;15.70;;;;;;5055951;28;20075;-79
2022/07/10 10:08:37;;;;;;;1.65;0.77;;;42.20;14.80;;;;;;5049934;28;20499;-79
2022/07/10 10:11:04;;;;;;;1.63;0.70;;;41.30;14.90;;;;;;5040575;28;20020;-79
2022/07/10 10:13:33;;;;;;;1.40;0.70;;;41.10;16.40;;;;;;5054474;28;20029;-79
2022/07/10 10:15:59;;;;;;;1.08;0.68;;;41.30;15.70;;;;;;5055265;28;20025;-79
2022/07/10 10:18:26;;;;;;;1.92;0.90;;;41.40;14.40;;;;;;5055603;28;20038;-79
2022/07/10 10:20:55;;;;;;;1.77;0.98;;;40.70;15.60;;;;;;5054302;28;20025;-79
2022/07/10 10:23:24;;;;;;;1.75;0.80;;;40.90;16.70;;;;;;5054479;28;20025;-80
2022/07/10 10:25:54;;;;;;;1.85;0.60;;;40.20;16.00;;;;;;5041422;28;20065;-79
2022/07/10 10:28:26;;;;;;;1.98;0.90;;;39.70;16.70;;;;;;5035385;28;20084;-79
2022/07/10 10:31:02;;;;;;;1.30;0.80;;;39.70;16.30;;;;;;5054141;28;20028;-79
2022/07/10 10:33:34;;;;;;;1.13;0.90;;;39.70;15.80;;;;;;5055302;28;20024;-79
2022/07/10 10:36:01;;;;;;;1.52;0.88;;;39.70;17.40;;;;;;5054964;28;20033;-80
2022/07/10 10:38:47;;;;;;;1.50;0.80;;;39.90;17.10;;;;;;5047448;28;20021;-79
2022/07/10 10:41:42;;;;;;;1.17;0.73;;;40.20;16.70;;;;;;5049747;28;20025;-79
2022/07/10 10:44:15;;;;;;;2.33;0.60;;;38.90;16.90;;;;;;5033970;28;20021;-80
2022/07/10 10:46:50;;;;;;;2.00;0.80;;;37.70;18.10;;;;;;5046444;28;20032;-79
2022/07/10 10:49:17;;;;;;;1.60;0.80;;;36.80;18.10;;;;;;5035203;28;20502;-79
2022/07/10 10:52:01;;;;;;;1.95;0.65;;;35.30;19.70;;;;;;5035278;28;20557;-79
2022/07/10 10:54:29;;;;;;;2.00;1.08;;;35.10;21.80;;;;;;5034993;28;20021;-79
2022/07/10 10:57:14;;;;;;;1.75;0.90;;;34.80;20.70;;;;;;5054184;28;20097;-79
2022/07/10 10:59:46;;;;;;;2.75;1.10;;;34.50;20.40;;;;;;5054978;28;20024;-79
2022/07/10 11:02:32;;;;;;;2.00;1.00;;;34.10;22.40;;;;;;5048916;28;20033;-79
2022/07/10 11:05:23;;;;;;;1.67;0.85;;;33.20;20.40;;;;;;5035208;28;20123;-79
2022/07/10 11:07:55;;;;;;;1.23;0.63;;;32.80;21.50;;;;;;5034914;28;20446;-79
2022/07/10 11:10:35;;;;;;;1.30;0.65;;;32.60;22.90;;;;;;5034860;28;20033;-79
2022/07/10 11:13:17;;;;;;;2.17;1.17;;;32.60;22.80;;;;;;5033351;28;20120;-79
2022/07/10 11:15:45;;;;;;;1.60;0.70;;;32.20;22.90;;;;;;5034881;28;20013;-79
2022/07/10 11:18:19;;;;;;;1.95;0.85;;;32.10;25.20;;;;;;5052820;28;20033;-79
2022/07/10 11:20:50;;;;;;;1.80;0.70;;;31.80;23.30;;;;;;5059043;28;20060;-79
2022/07/10 11:23:43;;;;;;;1.27;0.70;;;31.40;23.90;;;;;;5058730;28;20025;-79
2022/07/10 11:26:21;;;;;;;1.67;0.90;;;31.40;23.80;;;;;;5054178;28;20048;-79
2022/07/10 11:28:49;;;;;;;1.65;0.80;;;31.50;24.30;;;;;;5038690;28;20035;-79
2022/07/10 11:31:15;;;;;;;2.63;0.95;;;31.80;24.10;;;;;;5038576;28;20484;-78
2022/07/10 11:33:46;;;;;;;2.33;0.70;;;31.80;23.30;;;;;;5043076;28;20378;-79
2022/07/10 11:36:16;;;;;;;2.40;0.90;;;32.00;22.90;;;;;;5058726;28;20021;-79
2022/07/10 11:38:43;;;;;;;1.90;0.70;;;32.30;24.90;;;;;;5058661;28;20021;-79
2022/07/10 11:41:17;;;;;;;2.00;1.02;;;32.30;23.90;;;;;;5057226;28;20037;-78
2022/07/10 11:43:51;;;;;;;1.73;1.05;;;32.30;23.80;;;;;;5058363;28;20023;-78
2022/07/10 11:46:18;;;;;;;2.92;1.30;;;32.50;24.10;;;;;;5058660;28;20029;-78
2022/07/10 11:48:44;;;;;;;1.20;0.65;;;32.40;24.60;;;;;;5043106;28;20494;-79
2022/07/10 11:51:27;;;;;;;1.25;0.63;;;32.20;24.60;;;;;;5037118;28;20036;-79
2022/07/10 11:53:59;;;;;;;1.98;1.10;;;31.70;24.30;;;;;;5038366;28;20097;-79
2022/07/10 11:56:26;;;;;;;3.42;0.85;;;31.80;24.30;;;;;;5038222;28;20075;-78
2022/07/10 11:58:59;;;;;;;1.70;0.90;;;31.80;24.70;;;;;;5058019;28;20025;-79
2022/07/10 12:01:26;;;;;;;4.35;0.90;;;31.90;24.90;;;;;;5058005;28;20035;-79
2022/07/10 12:03:57;;;;;;;1.75;0.75;;;31.90;24.40;;;;;;5054973;28;20045;-78
2022/07/10 12:06:24;;;;;;;1.95;1.00;;;31.50;24.90;;;;;;5038025;28;20035;-79
2022/07/10 12:08:50;;;;;;;1.52;0.90;;;31.70;25.70;;;;;;5037862;28;20365;-78
2022/07/10 12:11:18;;;;;;;1.85;0.80;;;31.90;25.30;;;;;;5044560;28;20047;-79
2022/07/10 12:13:45;;;;;;;2.55;0.80;;;31.90;25.10;;;;;;5049525;28;20021;-79
2022/07/10 12:16:12;;;;;;;1.75;0.90;;;31.90;24.30;;;;;;5037781;28;20036;-78
2022/07/10 12:18:40;;;;;;;1.85;0.80;;;31.90;24.30;;;;;;5044309;28;20025;-78
2022/07/10 12:21:06;;;;;;;1.48;0.73;;;31.90;24.50;;;;;;5037865;28;20044;-78
2022/07/10 12:23:34;;;;;;;1.83;0.60;;;32.00;24.80;;;;;;5037741;28;20024;-78
2022/07/10 12:26:02;;;;;;;1.40;0.80;;;31.90;24.90;;;;;;5037690;28;20036;-79
2022/07/10 12:28:28;;;;;;;1.65;0.90;;;31.80;24.50;;;;;;5037503;28;20017;-78
2022/07/10 12:30:54;;;;;;;1.63;0.90;;;31.80;24.50;;;;;;5037224;28;20045;-78
2022/07/10 12:33:22;;;;;;;2.38;0.80;;;31.80;24.50;;;;;;5039256;28;20028;-78
2022/07/10 12:35:49;;;;;;;2.15;0.90;;;31.90;25.20;;;;;;5051708;28;20053;-79
2022/07/10 12:38:19;;;;;;;2.42;1.00;;;32.00;25.10;;;;;;5037357;28;20029;-77
2022/07/10 12:40:45;;;;;;;2.47;0.95;;;32.10;25.00;;;;;;5037100;28;20026;-78
2022/07/10 12:43:11;;;;;;;1.50;0.70;;;32.10;25.20;;;;;;5037261;28;20040;-78
2022/07/10 12:45:38;;;;;;;2.22;1.08;;;32.10;25.20;;;;;;5037040;28;20014;-78
2022/07/10 12:48:05;;;;;;;1.52;0.77;;;32.00;24.20;;;;;;5037214;28;20033;-78
2022/07/10 12:50:31;;;;;;;2.88;0.80;;;31.80;25.90;;;;;;5037435;28;20105;-78
2022/07/10 12:53:08;;;;;;;2.22;1.00;;;31.70;25.40;;;;;;5045329;28;20033;-78
2022/07/10 12:55:37;;;;;;;1.55;0.68;;;31.30;26.10;;;;;;5057123;28;20052;-78
2022/07/10 12:58:11;;;;;;;1.47;0.77;;;31.50;25.90;;;;;;5049238;28;20124;-78
2022/07/10 13:00:44;;;;;;;2.30;0.93;;;31.60;26.10;;;;;;5044953;28;20017;-78